Terminal Aerodrome Forecast
Issued by NWS

Home | Current Version | Previous Version | Text Only | Print | Product List | Glossary On
Versions: 1 2 3 4 5 6 7 8 9 10 11 12 13 14 15 16 17 18
000
FTUS45 KTFX 291127
TAFGTF
TAF
KGTF 291127Z 2912/3012 19008KT P6SM BKN150
     FM291800 23012G20KT P6SM SCT090 BKN150
     FM300000 23008KT P6SM BKN070 BKN120 PROB30 3000/3006 -SHRA
      BKN050=

USA.gov is the U.S. government's official web portal to all federal, state and local government web resources and services.